Time;durP1;ratioP1;P1;durP2;ratioP2;P2;SDS_P1;SDS_P2;PMS_P1;PMS_P2;Temp;Humidity;BMP_temperature;BMP_pressure;BME280_temperature;BME280_humidity;BME280_pressure;Samples;Min_cycle;Max_cycle;Signal;HPM_P1;HPM_P2
2022/05/27 00:01:52;;;;;;;10.68;2.88;;;14.50;99.90;;;;;;5034606;28;20083;-76
2022/05/27 00:04:17;;;;;;;11.93;3.20;;;14.50;99.90;;;;;;5035280;28;20037;-75
2022/05/27 00:06:43;;;;;;;11.60;3.38;;;14.50;99.90;;;;;;5017226;28;20044;-74
2022/05/27 00:09:08;;;;;;;10.05;3.00;;;14.50;99.90;;;;;;5019008;28;20055;-74
2022/05/27 00:11:35;;;;;;;11.13;2.90;;;14.30;99.90;;;;;;5035560;28;20068;-74
2022/05/27 00:14:01;;;;;;;11.63;3.72;;;14.40;99.90;;;;;;5034520;28;20103;-74
2022/05/27 00:16:28;;;;;;;11.30;3.45;;;14.40;99.90;;;;;;5035463;28;20037;-74
2022/05/27 00:18:54;;;;;;;13.73;3.78;;;14.40;99.90;;;;;;5033578;28;20041;-74
2022/05/27 00:21:20;;;;;;;9.95;3.50;;;14.30;99.90;;;;;;5034493;28;20092;-74
2022/05/27 00:23:45;;;;;;;14.20;3.80;;;14.30;99.90;;;;;;5033418;28;20030;-74
2022/05/27 00:26:11;;;;;;;12.80;3.88;;;14.30;99.90;;;;;;5018828;28;20040;-73
2022/05/27 00:28:37;;;;;;;10.07;2.83;;;14.20;99.90;;;;;;5018684;28;20403;-73
2022/05/27 00:31:04;;;;;;;14.18;3.95;;;14.30;99.90;;;;;;5035428;28;20456;-74
2022/05/27 00:33:31;;;;;;;10.02;3.30;;;14.30;99.90;;;;;;5016641;28;20049;-74
2022/05/27 00:35:57;;;;;;;13.75;3.50;;;14.30;99.90;;;;;;5035079;28;20062;-73
2022/05/27 00:38:22;;;;;;;14.55;4.25;;;14.30;99.90;;;;;;5035267;28;20049;-74
2022/05/27 00:40:54;;;;;;;11.80;3.60;;;14.30;99.90;;;;;;5034959;28;20069;-74
2022/05/27 00:43:20;;;;;;;13.65;4.00;;;14.30;99.90;;;;;;5033739;28;20045;-74
2022/05/27 00:46:11;;;;;;;12.98;3.50;;;14.20;99.90;;;;;;5017315;28;20045;-73
2022/05/27 00:48:38;;;;;;;14.73;3.67;;;14.30;99.90;;;;;;5033225;28;20045;-74
2022/05/27 00:51:20;;;;;;;11.98;3.15;;;14.20;99.90;;;;;;5033185;28;20041;-74
2022/05/27 00:53:59;;;;;;;14.35;4.03;;;14.20;99.90;;;;;;5016110;28;20046;-74
2022/05/27 00:56:30;;;;;;;12.82;3.90;;;14.20;99.90;;;;;;5034630;28;20041;-74
2022/05/27 00:59:01;;;;;;;12.23;3.80;;;14.20;99.90;;;;;;5034759;28;20088;-73
2022/05/27 01:01:28;;;;;;;15.43;4.40;;;14.10;99.90;;;;;;5033276;28;20041;-74
2022/05/27 01:03:57;;;;;;;14.23;3.72;;;14.20;99.90;;;;;;5017276;28;20037;-73
2022/05/27 01:06:23;;;;;;;12.57;3.30;;;14.10;99.90;;;;;;5034556;28;20041;-74
2022/05/27 01:08:49;;;;;;;15.57;3.83;;;14.10;99.90;;;;;;5017502;28;20115;-73
2022/05/27 01:11:37;;;;;;;13.00;4.00;;;14.10;99.90;;;;;;5018051;28;20092;-74
2022/05/27 01:14:32;;;;;;;12.98;4.07;;;14.00;99.90;;;;;;5033072;28;20052;-74
2022/05/27 01:17:09;;;;;;;11.82;3.72;;;14.00;99.90;;;;;;5031978;28;20520;-73
2022/05/27 01:23:05;;;;;;;10.75;3.50;;;13.90;99.90;;;;;;5050954;28;20041;-74
2022/05/27 01:25:49;;;;;;;;;;;13.90;99.90;;;;;;5032421;28;20119;-74
2022/05/27 01:28:33;;;;;;;11.75;3.38;;;13.80;99.90;;;;;;5034304;28;19917;-74
2022/05/27 01:31:33;;;;;;;12.55;3.60;;;13.80;99.90;;;;;;5034103;28;20056;-73
2022/05/27 01:34:03;;;;;;;12.18;3.83;;;13.70;99.90;;;;;;5032899;28;20090;-73
2022/05/27 01:36:38;;;;;;;12.98;3.45;;;13.70;99.90;;;;;;5033809;28;20053;-74
2022/05/27 01:39:28;;;;;;;13.48;3.75;;;13.70;99.90;;;;;;5017507;28;20045;-73
2022/05/27 01:42:21;;;;;;;16.00;3.50;;;13.70;99.90;;;;;;5016827;28;20037;-73
2022/05/27 01:44:56;;;;;;;12.43;3.30;;;13.70;99.90;;;;;;5033460;28;20124;-73
2022/05/27 01:47:32;;;;;;;14.75;3.20;;;13.70;99.90;;;;;;5033142;28;20079;-73
2022/05/27 01:50:25;;;;;;;14.77;3.35;;;13.70;99.90;;;;;;5033974;28;20405;-74
2022/05/27 01:53:00;;;;;;;;;;;13.70;99.90;;;;;;5049233;28;20049;-73
2022/05/27 01:55:34;;;;;;;12.18;3.38;;;13.60;99.90;;;;;;5048793;28;19916;-73
2022/05/27 01:58:14;;;;;;;12.50;3.33;;;13.70;99.90;;;;;;5033016;28;20042;-73
2022/05/27 02:00:43;;;;;;;10.75;3.05;;;13.70;99.90;;;;;;5033705;28;20057;-74
2022/05/27 02:03:21;;;;;;;11.80;3.72;;;13.70;99.90;;;;;;5016718;28;20029;-73
2022/05/27 02:06:05;;;;;;;13.23;3.33;;;13.70;99.90;;;;;;5033436;28;20038;-73
2022/05/27 02:08:39;;;;;;;10.00;3.10;;;13.70;99.90;;;;;;5016937;28;20073;-73
2022/05/27 02:11:10;;;;;;;11.75;3.47;;;13.60;99.90;;;;;;5016857;28;20038;-73
2022/05/27 02:13:41;;;;;;;13.82;3.47;;;13.70;99.90;;;;;;5011929;28;20030;-73
2022/05/27 02:16:22;;;;;;;10.82;2.58;;;13.80;99.90;;;;;;5017205;28;20041;-73
2022/05/27 02:19:04;;;;;;;11.25;2.75;;;13.60;99.90;;;;;;5016733;28;20079;-74
2022/05/27 02:21:36;;;;;;;11.63;2.78;;;13.50;99.90;;;;;;5048307;28;20526;-74
2022/05/27 02:24:06;;;;;;;;;;;13.50;99.90;;;;;;5031965;28;20048;-74
2022/05/27 02:26:37;;;;;;;11.52;2.88;;;13.40;99.90;;;;;;5033052;28;19917;-73
2022/05/27 02:29:08;;;;;;;11.68;2.65;;;13.30;99.90;;;;;;5032032;28;20049;-73
2022/05/27 02:31:37;;;;;;;8.07;2.28;;;13.30;99.90;;;;;;5033011;28;20565;-74
2022/05/27 02:37:16;;;;;;;9.07;2.42;;;13.20;99.90;;;;;;5004293;28;20089;-73
2022/05/27 02:39:41;;;;;;;12.25;3.17;;;13.20;99.90;;;;;;5004346;28;20045;-73
2022/05/27 02:42:29;;;;;;;10.98;3.10;;;13.20;99.90;;;;;;5032739;28;20037;-73
2022/05/27 02:45:12;;;;;;;13.30;3.17;;;13.20;99.90;;;;;;5030597;28;20045;-73
2022/05/27 02:47:57;;;;;;;9.98;2.97;;;13.10;99.90;;;;;;5032835;28;20049;-73
2022/05/27 02:50:49;;;;;;;8.50;1.95;;;13.10;99.90;;;;;;5043694;28;20115;-74
2022/05/27 02:53:34;;;;;;;11.73;2.63;;;13.00;99.90;;;;;;5030885;28;20068;-73
2022/05/27 02:56:46;;;;;;;10.18;2.85;;;13.00;99.90;;;;;;5015003;28;20048;-73
2022/05/27 02:59:15;;;;;;;10.15;2.70;;;12.90;99.90;;;;;;5038825;28;20041;-73
2022/05/27 03:01:40;;;;;;;11.13;2.58;;;13.00;99.90;;;;;;5015902;28;20029;-73
2022/05/27 03:04:07;;;;;;;8.15;2.75;;;13.00;99.90;;;;;;5030869;28;20509;-73
2022/05/27 03:07:25;;;;;;;9.90;2.58;;;13.00;99.90;;;;;;5032368;28;20041;-73
2022/05/27 03:09:54;;;;;;;11.02;2.80;;;13.00;99.90;;;;;;5018711;28;20045;-73
2022/05/27 03:12:55;;;;;;;9.63;2.53;;;12.90;99.90;;;;;;5015938;28;20543;-74
2022/05/27 03:15:29;;;;;;;12.68;2.70;;;12.90;99.90;;;;;;5013900;28;20042;-73
2022/05/27 03:18:15;;;;;;;9.02;2.95;;;12.90;99.90;;;;;;5014796;28;20037;-73
2022/05/27 03:20:49;;;;;;;11.20;2.80;;;12.90;99.90;;;;;;5016141;28;20038;-73
2022/05/27 03:23:46;;;;;;;12.55;2.70;;;12.90;99.90;;;;;;5029284;28;20152;-73
2022/05/27 03:26:36;;;;;;;9.80;2.40;;;12.90;99.90;;;;;;5028209;28;20040;-73
2022/05/27 03:29:26;;;;;;;10.35;2.78;;;12.90;99.90;;;;;;5031308;28;20441;-74
2022/05/27 03:32:05;;;;;;;14.90;3.10;;;12.70;99.90;;;;;;5024312;28;20123;-75
2022/05/27 03:34:49;;;;;;;14.55;3.83;;;12.60;99.90;;;;;;5030622;28;20041;-74
2022/05/27 03:37:30;;;;;;;11.52;2.78;;;12.60;99.90;;;;;;5029629;28;20049;-74
2022/05/27 03:40:12;;;;;;;12.70;2.97;;;12.70;99.90;;;;;;5011180;28;20042;-75
2022/05/27 03:42:39;;;;;;;;;;;12.70;99.90;;;;;;5029594;28;20033;-76
2022/05/27 03:45:14;;;;;;;11.85;3.30;;;12.70;99.90;;;;;;5014513;28;19917;-75
2022/05/27 03:47:42;;;;;;;14.45;2.88;;;12.70;99.90;;;;;;5030381;28;20133;-76
2022/05/27 03:50:11;;;;;;;11.57;2.72;;;12.60;99.90;;;;;;5015281;28;20049;-75
2022/05/27 03:52:40;;;;;;;14.38;3.53;;;12.50;99.90;;;;;;5045449;28;20505;-76
2022/05/27 03:55:08;;;;;;;13.63;3.22;;;12.60;99.90;;;;;;5028552;28;20501;-75
2022/05/27 03:57:34;;;;;;;14.82;2.90;;;12.60;99.90;;;;;;5014396;28;20087;-77
2022/05/27 03:59:59;;;;;;;13.85;3.20;;;12.60;99.90;;;;;;5031720;28;20045;-76
2022/05/27 04:02:25;;;;;;;12.45;2.95;;;12.50;99.90;;;;;;5013224;28;20059;-77
2022/05/27 04:04:51;;;;;;;12.57;2.55;;;12.50;99.90;;;;;;5048280;28;20096;-75
2022/05/27 04:07:16;;;;;;;10.68;2.42;;;12.50;99.90;;;;;;5030236;28;20041;-75
2022/05/27 04:09:42;;;;;;;12.18;3.08;;;12.50;99.90;;;;;;5048135;28;20478;-75
2022/05/27 04:12:08;;;;;;;14.77;3.05;;;12.50;99.90;;;;;;5030233;28;20045;-74
2022/05/27 04:14:34;;;;;;;11.77;2.72;;;12.50;99.90;;;;;;5043292;28;20038;-76
2022/05/27 04:19:44;;;;;;;11.05;2.53;;;12.50;99.90;;;;;;5031611;28;20053;-74
2022/05/27 04:22:09;;;;;;;14.10;2.85;;;12.50;99.90;;;;;;5011906;28;20505;-75
2022/05/27 04:24:35;;;;;;;9.90;2.80;;;12.50;99.90;;;;;;5003472;28;20041;-74
2022/05/27 04:27:12;;;;;;;11.40;2.60;;;12.60;99.90;;;;;;5013660;28;20043;-75
2022/05/27 04:29:40;;;;;;;14.52;2.55;;;12.60;99.90;;;;;;5031008;28;20037;-76
2022/05/27 04:32:06;;;;;;;15.95;3.60;;;12.60;99.90;;;;;;5030400;28;20379;-76
2022/05/27 04:34:32;;;;;;;16.77;3.13;;;12.60;99.90;;;;;;5029764;28;20040;-75
2022/05/27 04:36:57;;;;;;;15.10;3.65;;;12.60;99.90;;;;;;5029129;28;20081;-74
2022/05/27 04:39:23;;;;;;;11.60;2.58;;;12.60;99.90;;;;;;5014665;28;20072;-77
2022/05/27 04:41:48;;;;;;;12.02;2.97;;;12.60;99.90;;;;;;5030906;28;20053;-76
2022/05/27 04:44:14;;;;;;;12.80;2.90;;;12.70;99.90;;;;;;5030402;28;20041;-77
2022/05/27 04:46:40;;;;;;;12.35;3.40;;;12.70;99.90;;;;;;5027481;28;20046;-77
2022/05/27 04:49:05;;;;;;;15.35;3.35;;;12.70;99.90;;;;;;5033345;28;20041;-77
2022/05/27 04:51:31;;;;;;;17.67;3.42;;;12.70;99.90;;;;;;5041916;28;20052;-76
2022/05/27 04:53:56;;;;;;;16.20;3.25;;;12.70;99.90;;;;;;5026128;28;20055;-75
2022/05/27 04:56:25;;;;;;;17.77;3.55;;;12.70;99.90;;;;;;5029757;28;20061;-75
2022/05/27 04:58:51;;;;;;;12.23;3.17;;;12.70;99.90;;;;;;5032520;28;20034;-75
2022/05/27 05:01:16;;;;;;;15.00;2.80;;;12.80;99.90;;;;;;5032736;28;20037;-75
2022/05/27 05:03:42;;;;;;;14.15;3.22;;;12.70;99.90;;;;;;5025886;28;20034;-74
2022/05/27 05:06:07;;;;;;;13.55;2.70;;;12.90;99.90;;;;;;5034158;28;20049;-75
2022/05/27 05:08:36;;;;;;;12.63;2.60;;;12.90;99.90;;;;;;5033824;28;20033;-75
2022/05/27 05:11:03;;;;;;;13.45;3.08;;;12.90;99.90;;;;;;5016460;28;20030;-75
2022/05/27 05:13:30;;;;;;;14.20;3.08;;;12.80;99.90;;;;;;5032475;28;20045;-76
2022/05/27 05:15:57;;;;;;;13.13;3.00;;;12.80;99.90;;;;;;5029375;28;20037;-76
2022/05/27 05:18:23;;;;;;;13.25;2.88;;;12.80;99.90;;;;;;5033101;28;20121;-76
2022/05/27 05:20:49;;;;;;;10.13;2.10;;;12.80;99.90;;;;;;5029910;28;20037;-76
2022/05/27 05:23:15;;;;;;;11.85;2.63;;;12.80;99.90;;;;;;5029160;28;20083;-76
2022/05/27 05:25:40;;;;;;;12.27;2.97;;;12.80;99.90;;;;;;5024737;28;20041;-75
2022/05/27 05:28:06;;;;;;;11.93;2.55;;;12.90;99.90;;;;;;5032679;28;20037;-74
2022/05/27 05:30:31;;;;;;;11.35;2.97;;;12.80;99.90;;;;;;5031854;28;20045;-74
2022/05/27 05:32:57;;;;;;;14.95;2.50;;;12.80;99.90;;;;;;5031924;28;20037;-74
2022/05/27 05:35:23;;;;;;;11.35;2.58;;;12.90;99.90;;;;;;5033076;28;20187;-76
2022/05/27 05:37:49;;;;;;;11.60;2.50;;;12.80;99.90;;;;;;5011603;28;20042;-76
2022/05/27 05:40:15;;;;;;;12.93;2.72;;;12.80;99.90;;;;;;5033922;28;20034;-76
2022/05/27 05:42:41;;;;;;;11.50;2.60;;;12.90;99.90;;;;;;5015284;28;20033;-76
2022/05/27 05:45:10;;;;;;;15.40;2.95;;;12.80;99.90;;;;;;5032898;28;20061;-76
2022/05/27 05:47:36;;;;;;;11.95;2.55;;;12.80;99.90;;;;;;5026086;28;20091;-75
2022/05/27 05:50:02;;;;;;;13.88;2.90;;;12.90;99.90;;;;;;5032623;28;20034;-75
2022/05/27 05:52:27;;;;;;;15.38;2.70;;;12.90;99.90;;;;;;5018676;28;20102;-75
2022/05/27 05:54:53;;;;;;;11.45;2.50;;;12.90;99.90;;;;;;5039161;28;20043;-75
2022/05/27 05:57:18;;;;;;;14.45;3.40;;;13.00;99.90;;;;;;5032032;28;20030;-75
2022/05/27 05:59:44;;;;;;;15.07;2.35;;;13.20;99.90;;;;;;5033032;28;20092;-75
2022/05/27 06:02:10;;;;;;;14.30;2.85;;;13.30;99.90;;;;;;5023657;28;20044;-75
2022/05/27 06:04:35;;;;;;;14.68;2.40;;;13.30;99.90;;;;;;5029985;28;20038;-75
2022/05/27 06:07:01;;;;;;;12.07;2.50;;;13.40;99.90;;;;;;5028490;28;20494;-76
2022/05/27 06:09:27;;;;;;;10.85;2.60;;;13.50;99.90;;;;;;5032790;28;20404;-76
2022/05/27 06:11:54;;;;;;;13.65;3.17;;;13.70;99.90;;;;;;5033338;28;20045;-75
2022/05/27 06:14:19;;;;;;;12.52;2.72;;;13.80;99.90;;;;;;5036417;28;20053;-75
2022/05/27 06:16:45;;;;;;;12.70;2.75;;;13.80;99.90;;;;;;5024598;28;20054;-76
2022/05/27 06:19:10;;;;;;;11.93;2.50;;;14.00;99.90;;;;;;5014771;28;20048;-76
2022/05/27 06:21:36;;;;;;;13.07;2.22;;;14.10;99.90;;;;;;5032887;28;20037;-77
2022/05/27 06:24:03;;;;;;;12.18;2.63;;;14.00;99.90;;;;;;5032084;28;20490;-77
2022/05/27 06:26:29;;;;;;;12.70;2.95;;;14.20;99.90;;;;;;5029536;28;20498;-77
2022/05/27 06:34:25;;;;;;;13.95;2.80;;;14.30;99.90;;;;;;5045154;28;20045;-75
2022/05/27 06:36:59;;;;;;;13.18;2.88;;;14.40;99.90;;;;;;5031122;28;20088;-76
2022/05/27 06:39:25;;;;;;;14.30;2.80;;;14.40;99.90;;;;;;5013825;28;20482;-75
2022/05/27 06:41:51;;;;;;;15.10;2.65;;;14.40;99.90;;;;;;5049063;28;20041;-76
2022/05/27 06:44:18;;;;;;;12.27;2.53;;;14.40;99.90;;;;;;5017397;28;20052;-76
2022/05/27 06:46:44;;;;;;;14.98;3.05;;;14.50;99.90;;;;;;5030727;28;20049;-76
2022/05/27 06:49:10;;;;;;;11.35;2.55;;;14.50;99.90;;;;;;5024232;28;20498;-75
2022/05/27 06:51:40;;;;;;;12.77;3.00;;;14.50;99.90;;;;;;5032185;28;20049;-76
2022/05/27 06:54:07;;;;;;;12.95;3.33;;;14.50;99.90;;;;;;5014963;28;20046;-76
2022/05/27 06:56:37;;;;;;;10.75;2.25;;;14.50;99.90;;;;;;5030909;28;20408;-76
2022/05/27 06:59:05;;;;;;;12.82;2.55;;;14.40;99.90;;;;;;5031475;28;20095;-76
2022/05/27 07:01:30;;;;;;;13.13;2.50;;;14.40;99.90;;;;;;5016023;28;20091;-75
2022/05/27 07:03:57;;;;;;;12.00;2.65;;;14.30;99.90;;;;;;5023063;28;20045;-76
2022/05/27 07:06:26;;;;;;;9.25;2.00;;;14.20;99.90;;;;;;5028138;28;20045;-77
2022/05/27 07:08:52;;;;;;;10.95;2.20;;;14.30;99.90;;;;;;5032220;28;20116;-77
2022/05/27 07:11:17;;;;;;;10.00;2.03;;;14.50;99.90;;;;;;5014132;28;20128;-77
2022/05/27 07:13:43;;;;;;;7.93;1.67;;;14.50;99.90;;;;;;5027440;28;20204;-77
2022/05/27 07:16:08;;;;;;;10.60;2.25;;;14.70;99.90;;;;;;5032435;28;20048;-77
2022/05/27 07:18:34;;;;;;;8.82;1.90;;;14.70;99.90;;;;;;5031175;28;20033;-75
2022/05/27 07:21:06;;;;;;;10.65;2.40;;;14.70;99.90;;;;;;5031086;28;20044;-75
2022/05/27 07:23:32;;;;;;;11.47;2.27;;;14.70;99.90;;;;;;5029532;28;20068;-76
2022/05/27 07:25:58;;;;;;;10.60;2.40;;;14.70;99.90;;;;;;5015579;28;20276;-76
2022/05/27 07:28:24;;;;;;;11.60;2.53;;;14.50;99.90;;;;;;5031064;28;20079;-74
2022/05/27 07:30:50;;;;;;;12.40;2.58;;;14.50;99.90;;;;;;5031129;28;20041;-74
2022/05/27 07:33:15;;;;;;;14.05;2.80;;;14.40;99.90;;;;;;5028924;28;20044;-75
2022/05/27 07:35:42;;;;;;;12.13;2.10;;;14.50;99.90;;;;;;5030750;28;20053;-74
2022/05/27 07:38:07;;;;;;;12.85;2.50;;;14.50;99.90;;;;;;5047775;28;20516;-74
2022/05/27 07:40:33;;;;;;;12.00;2.35;;;14.40;99.90;;;;;;5030757;28;20042;-75
2022/05/27 07:42:59;;;;;;;12.30;2.13;;;14.60;99.90;;;;;;5021852;28;20402;-75
2022/05/27 07:45:29;;;;;;;15.65;2.70;;;14.70;99.90;;;;;;5009340;28;20124;-75
2022/05/27 07:47:55;;;;;;;11.88;2.47;;;14.80;99.90;;;;;;5031166;28;20087;-75
2022/05/27 07:50:22;;;;;;;12.43;2.40;;;15.00;99.90;;;;;;5030187;28;20033;-75
2022/05/27 07:52:47;;;;;;;15.00;2.50;;;14.90;99.90;;;;;;5014286;28;20053;-74
2022/05/27 07:55:13;;;;;;;10.95;2.13;;;14.80;99.90;;;;;;5031792;28;20041;-73
2022/05/27 07:57:44;;;;;;;9.80;2.38;;;14.80;99.90;;;;;;5030485;28;20053;-75
2022/05/27 08:00:14;;;;;;;11.98;2.53;;;15.00;99.90;;;;;;5030424;28;20053;-75
2022/05/27 08:02:39;;;;;;;8.70;2.10;;;15.00;99.90;;;;;;5030452;28;20042;-75
2022/05/27 08:05:07;;;;;;;14.27;2.67;;;15.10;99.90;;;;;;5031536;28;20037;-75
2022/05/27 08:07:33;;;;;;;12.85;2.50;;;15.30;99.90;;;;;;5029842;28;20038;-75
2022/05/27 08:09:58;;;;;;;10.18;2.30;;;15.30;99.90;;;;;;5031166;28;20247;-75
2022/05/27 08:12:24;;;;;;;11.63;2.90;;;15.40;99.90;;;;;;5030281;28;20379;-75
2022/05/27 08:14:50;;;;;;;13.50;3.70;;;15.20;99.90;;;;;;5047627;28;20049;-75
2022/05/27 08:17:15;;;;;;;12.88;3.38;;;15.20;99.90;;;;;;5045985;28;20037;-75
2022/05/27 08:19:41;;;;;;;10.20;2.45;;;15.20;99.90;;;;;;5031413;28;20037;-75
2022/05/27 08:22:07;;;;;;;14.13;3.28;;;15.30;99.90;;;;;;5034458;28;20033;-75
2022/05/27 08:24:33;;;;;;;10.63;2.38;;;15.10;99.90;;;;;;5034164;28;20065;-75
2022/05/27 08:26:58;;;;;;;11.88;2.30;;;14.90;99.90;;;;;;5017678;28;20045;-76
2022/05/27 08:29:24;;;;;;;13.52;2.70;;;14.70;99.90;;;;;;5030063;28;20052;-75
2022/05/27 08:31:50;;;;;;;10.05;2.55;;;14.70;99.90;;;;;;5034801;28;20528;-75
2022/05/27 08:39:48;;;;;;;11.60;2.75;;;14.60;99.90;;;;;;5034755;28;20049;-75
2022/05/27 08:42:39;;;;;;;15.73;2.67;;;14.70;99.90;;;;;;5017611;28;20040;-76
2022/05/27 08:45:17;;;;;;;11.67;2.60;;;14.90;99.90;;;;;;5051479;28;20157;-75
2022/05/27 08:47:48;;;;;;;14.68;2.45;;;15.10;99.90;;;;;;5051540;28;20433;-76
2022/05/27 08:50:39;;;;;;;16.42;2.92;;;15.40;99.90;;;;;;5034671;28;20128;-76
2022/05/27 08:53:26;;;;;;;13.63;2.30;;;15.50;99.90;;;;;;5034875;28;20386;-76
2022/05/27 09:01:37;;;;;;;9.20;2.20;;;15.20;99.80;;;;;;5034116;28;20053;-76
2022/05/27 09:04:26;;;;;;;11.00;2.30;;;15.10;99.90;;;;;;5034678;28;20052;-75
2022/05/27 09:06:56;;;;;;;11.02;2.35;;;15.30;99.90;;;;;;5034448;28;20454;-75
2022/05/27 09:09:26;;;;;;;9.93;2.40;;;15.30;99.90;;;;;;5017713;28;20104;-76
2022/05/27 09:12:26;;;;;;;13.27;2.30;;;15.30;99.90;;;;;;5017087;28;20390;-75
2022/05/27 09:15:04;;;;;;;12.80;1.92;;;15.40;99.90;;;;;;5001258;28;20053;-75
2022/05/27 09:17:48;;;;;;;13.63;2.40;;;15.70;99.90;;;;;;5034366;28;20064;-74
2022/05/27 09:20:24;;;;;;;9.73;2.30;;;15.80;99.90;;;;;;5050731;28;20033;-76
2022/05/27 09:22:49;;;;;;;14.20;2.30;;;16.00;99.90;;;;;;5033917;28;20052;-76
2022/05/27 09:25:19;;;;;;;12.00;2.35;;;16.10;99.90;;;;;;5017757;28;20401;-75
2022/05/27 09:28:17;;;;;;;11.52;2.15;;;16.10;99.90;;;;;;5050252;28;20045;-75
2022/05/27 09:30:43;;;;;;;13.73;2.08;;;15.80;99.90;;;;;;5050087;28;20042;-76
2022/05/27 09:33:16;;;;;;;12.38;2.25;;;15.80;99.90;;;;;;5041437;28;20052;-75
2022/05/27 09:35:45;;;;;;;12.77;2.20;;;16.00;99.90;;;;;;5036960;28;20061;-76
2022/05/27 09:38:22;;;;;;;9.25;1.55;;;15.80;99.90;;;;;;5053562;28;20094;-76
2022/05/27 09:40:59;;;;;;;9.60;2.13;;;16.00;99.90;;;;;;5041860;28;20391;-75
2022/05/27 09:43:39;;;;;;;13.40;2.15;;;16.10;99.90;;;;;;5029775;28;20572;-76
2022/05/27 09:46:10;;;;;;;10.90;2.30;;;16.00;99.90;;;;;;5032982;28;20367;-71
2022/05/27 09:48:35;;;;;;;8.98;1.85;;;16.10;99.90;;;;;;5015715;28;20038;-76
2022/05/27 09:51:04;;;;;;;10.55;2.25;;;16.20;99.90;;;;;;5046472;28;20030;-77
2022/05/27 09:53:36;;;;;;;11.18;2.17;;;16.10;99.90;;;;;;5032593;28;20489;-77
2022/05/27 09:56:11;;;;;;;13.50;2.80;;;16.10;99.90;;;;;;5017185;28;20041;-77
2022/05/27 09:58:42;;;;;;;16.75;2.92;;;16.10;99.90;;;;;;5015883;28;20037;-77
2022/05/27 10:01:25;;;;;;;13.98;2.42;;;15.90;99.90;;;;;;5028080;28;20084;-77
2022/05/27 10:04:07;;;;;;;12.40;2.28;;;15.80;99.90;;;;;;5013964;28;20037;-77
2022/05/27 10:06:35;;;;;;;9.43;2.00;;;15.80;99.90;;;;;;5024868;28;20494;-76
2022/05/27 10:09:04;;;;;;;10.25;1.85;;;15.80;99.90;;;;;;5030126;28;20403;-78
2022/05/27 10:11:55;;;;;;;10.10;2.33;;;15.60;99.90;;;;;;5032578;28;20040;-78
2022/05/27 10:14:28;;;;;;;10.07;1.80;;;15.30;99.90;;;;;;5016062;28;20555;-77
2022/05/27 10:17:09;;;;;;;9.63;2.15;;;15.40;99.90;;;;;;5032795;28;20172;-77
2022/05/27 10:19:39;;;;;;;11.35;2.08;;;15.70;99.90;;;;;;5030403;28;20037;-77
2022/05/27 10:22:08;;;;;;;12.95;2.47;;;15.80;99.90;;;;;;5032749;28;20509;-76
2022/05/27 10:24:38;;;;;;;12.73;2.10;;;15.60;98.60;;;;;;5033162;28;20078;-77
2022/05/27 10:27:04;;;;;;;9.82;1.90;;;15.70;99.90;;;;;;5031058;28;20399;-77
2022/05/27 10:29:31;;;;;;;10.00;1.90;;;15.60;99.90;;;;;;5041898;28;20437;-76
2022/05/27 10:31:59;;;;;;;10.18;2.00;;;15.50;99.90;;;;;;5021482;28;20045;-76
2022/05/27 10:34:41;;;;;;;11.30;2.13;;;15.30;99.90;;;;;;5031113;28;20050;-77
2022/05/27 10:37:28;;;;;;;9.30;2.23;;;15.40;99.90;;;;;;5028909;28;20081;-77
2022/05/27 10:40:24;;;;;;;10.70;2.15;;;15.50;99.90;;;;;;5016389;28;20287;-76
2022/05/27 10:43:15;;;;;;;12.00;2.30;;;15.50;99.90;;;;;;5031950;28;20044;-77
2022/05/27 10:45:47;;;;;;;12.48;3.10;;;15.50;99.90;;;;;;5021674;28;20047;-78
2022/05/27 10:48:35;;;;;;;11.57;2.63;;;15.70;99.90;;;;;;5032807;28;20049;-76
2022/05/27 10:51:50;;;;;;;11.82;2.25;;;15.80;99.90;;;;;;5032107;28;20049;-76
2022/05/27 10:54:52;;;;;;;10.95;1.88;;;15.90;99.90;;;;;;4999304;28;20060;-75
2022/05/27 11:03:14;;;;;;;8.90;1.90;;;15.80;99.90;;;;;;5049171;28;20458;-76
2022/05/27 11:06:07;;;;;;;8.32;1.85;;;16.00;99.90;;;;;;5031553;28;20386;-70
2022/05/27 11:08:33;;;;;;;10.88;2.10;;;15.70;99.90;;;;;;5031992;28;20049;-75
2022/05/27 11:11:01;;;;;;;9.85;2.13;;;15.80;99.90;;;;;;5030759;28;20045;-77
2022/05/27 11:17:03;;;;;;;11.93;2.45;;;16.10;99.90;;;;;;5040624;28;20120;-76
2022/05/27 11:20:04;;;;;;;10.23;2.22;;;16.10;99.90;;;;;;5031944;28;20045;-76
2022/05/27 11:22:57;;;;;;;11.82;2.53;;;16.00;99.90;;;;;;5009555;28;20121;-76
2022/05/27 11:25:48;;;;;;;14.55;2.45;;;16.20;99.90;;;;;;5030951;28;20037;-76
2022/05/27 11:28:55;;;;;;;12.05;2.03;;;16.10;99.90;;;;;;5030082;28;20037;-75
2022/05/27 11:31:27;;;;;;;14.25;2.25;;;16.10;99.90;;;;;;5017777;28;20048;-71
2022/05/27 11:34:22;;;;;;;12.07;2.38;;;16.10;99.90;;;;;;5030271;28;20064;-72
2022/05/27 11:37:03;;;;;;;11.10;2.80;;;16.00;99.90;;;;;;5030396;28;20045;-72
2022/05/27 11:39:34;;;;;;;13.70;2.60;;;16.20;99.90;;;;;;5047455;28;20041;-71
2022/05/27 11:42:06;;;;;;;10.45;2.38;;;16.30;99.90;;;;;;5015248;28;20041;-73
2022/05/27 11:44:40;;;;;;;10.15;2.50;;;16.30;99.90;;;;;;5030750;28;20068;-71
2022/05/27 11:47:17;;;;;;;8.30;1.80;;;16.20;99.90;;;;;;5030705;28;20079;-73
2022/05/27 11:50:20;;;;;;;10.77;2.30;;;16.20;99.90;;;;;;5031144;28;20065;-74
2022/05/27 11:52:59;;;;;;;9.68;1.77;;;16.10;99.90;;;;;;5015051;28;20041;-73
2022/05/27 11:55:31;;;;;;;12.27;2.10;;;16.00;99.90;;;;;;5049591;28;20054;-76
2022/05/27 11:58:28;;;;;;;11.30;2.10;;;15.90;99.90;;;;;;5034383;28;20041;-73
2022/05/27 12:01:06;;;;;;;12.02;2.08;;;15.90;99.90;;;;;;5032158;28;20056;-74
2022/05/27 12:03:50;;;;;;;12.02;2.05;;;15.70;99.90;;;;;;5019120;28;20033;-74
2022/05/27 12:06:21;;;;;;;11.10;2.15;;;15.50;99.90;;;;;;5031325;28;20037;-74
2022/05/27 12:09:28;;;;;;;11.93;2.67;;;15.50;99.90;;;;;;5049662;28;20041;-73
2022/05/27 12:12:08;;;;;;;13.50;2.50;;;15.60;99.90;;;;;;5046938;28;20045;-73
2022/05/27 12:14:38;;;;;;;17.08;2.80;;;15.60;99.90;;;;;;5033970;28;20061;-74
2022/05/27 12:17:09;;;;;;;12.48;2.42;;;15.70;99.90;;;;;;5032912;28;20037;-74
2022/05/27 12:19:39;;;;;;;12.93;2.05;;;15.50;99.90;;;;;;5033362;28;20037;-75
2022/05/27 12:22:16;;;;;;;9.85;2.35;;;15.50;99.90;;;;;;5027046;28;20052;-75
2022/05/27 12:24:47;;;;;;;12.90;2.00;;;15.40;99.90;;;;;;5016553;28;20087;-75
2022/05/27 12:27:15;;;;;;;10.37;2.30;;;15.40;99.90;;;;;;5034092;28;20075;-74
2022/05/27 12:29:43;;;;;;;11.77;2.90;;;15.40;99.90;;;;;;5034699;28;20367;-74
2022/05/27 12:32:10;;;;;;;14.63;2.70;;;15.50;99.90;;;;;;5034148;28;20033;-73
2022/05/27 12:34:39;;;;;;;11.32;2.40;;;15.40;99.90;;;;;;5037135;28;20056;-75
2022/05/27 12:37:25;;;;;;;13.30;2.20;;;15.30;99.90;;;;;;5033683;28;20440;-75
2022/05/27 12:40:10;;;;;;;13.48;2.30;;;15.30;99.90;;;;;;5035967;28;20116;-75
2022/05/27 12:42:39;;;;;;;13.50;2.50;;;15.30;99.90;;;;;;5033852;28;20055;-75
2022/05/27 12:45:36;;;;;;;12.80;2.35;;;15.30;99.90;;;;;;5033610;28;20034;-75
2022/05/27 12:48:02;;;;;;;13.93;2.35;;;15.50;99.90;;;;;;5021613;28;20044;-75
2022/05/27 12:50:34;;;;;;;15.45;3.40;;;15.60;99.90;;;;;;5026931;28;20040;-75
2022/05/27 12:53:14;;;;;;;;;;;15.50;99.90;;;;;;5035147;28;20045;-75
2022/05/27 13:01:32;;;;;;;7.05;1.48;;;15.30;99.90;;;;;;5033593;28;20057;-74
2022/05/27 13:04:01;;;;;;;13.38;2.33;;;15.30;99.90;;;;;;5034897;28;20041;-74
2022/05/27 13:06:26;;;;;;;12.45;2.53;;;15.10;99.90;;;;;;5027663;28;20168;-74
2022/05/27 13:09:04;;;;;;;12.77;2.38;;;15.20;99.90;;;;;;5022845;28;20131;-74
2022/05/27 13:11:36;;;;;;;12.90;2.25;;;15.10;99.90;;;;;;5024508;28;20041;-75
2022/05/27 13:14:04;;;;;;;9.70;2.65;;;15.10;99.90;;;;;;5033893;28;20041;-70
2022/05/27 13:16:45;;;;;;;13.55;2.00;;;15.00;99.90;;;;;;5010963;28;20045;-73
2022/05/27 13:19:36;;;;;;;13.65;3.00;;;14.90;99.90;;;;;;5034755;28;20037;-73
2022/05/27 13:22:10;;;;;;;15.68;2.38;;;14.80;99.90;;;;;;5053839;28;20095;-72
2022/05/27 13:24:39;;;;;;;11.88;2.20;;;14.80;99.90;;;;;;5039778;28;20064;-72
2022/05/27 13:27:23;;;;;;;14.10;3.08;;;14.90;99.90;;;;;;5053358;28;20040;-73
2022/05/27 13:29:57;;;;;;;11.65;2.15;;;14.80;99.90;;;;;;5035852;28;20042;-74
2022/05/27 13:32:27;;;;;;;11.48;2.00;;;14.60;99.90;;;;;;5017643;28;20049;-74
2022/05/27 13:35:10;;;;;;;13.85;1.98;;;14.40;99.90;;;;;;5032953;28;20056;-77
2022/05/27 13:37:39;;;;;;;9.43;2.67;;;14.40;99.90;;;;;;5013675;28;20049;-69
2022/05/27 13:40:15;;;;;;;11.65;1.80;;;14.50;99.90;;;;;;5020557;28;20543;-73
2022/05/27 13:42:44;;;;;;;11.52;2.17;;;14.60;99.90;;;;;;5017511;28;20045;-73
2022/05/27 13:45:33;;;;;;;11.27;2.70;;;14.70;99.90;;;;;;5032787;28;20041;-73
2022/05/27 13:48:14;;;;;;;14.30;2.75;;;14.60;99.90;;;;;;5032948;28;20041;-73
2022/05/27 13:50:43;;;;;;;17.15;2.50;;;14.60;99.90;;;;;;5031807;28;20060;-73
2022/05/27 13:53:25;;;;;;;14.18;2.78;;;14.60;99.90;;;;;;5017324;28;20052;-73